INFORMACIÓN METAR y TAF
METAR FOR LIMJ
ADDS - METARS form results

(2159 UTC 13 August 2022)
Data provider http://aviationweather.gov/metar/data/
 
METAR text: LIMJ 132150Z 03003KT 350V050 CAVOK 25/18 Q1013
Conditions at: LIMJ (GENOVA/SESTRI , IT) observed 2150 UTC 13 August 2022
Temperature: 25.0°C (77°F)
Dewpoint: 18.0°C (64°F) [RH = 65%]
Pressure (altimeter): 29.91 inches Hg (1013.0 mb)
Winds: from the NNE (30 degrees) at 3 MPH (3 knots; 1.5 m/s)
Visibility: 6 or more miles (10+ km)
Ceiling: ceiling and visibility are OK
Clouds: unknown
Weather: no significant weather observed at this time

METAR text: LIMJ 132120Z VRB03KT CAVOK 25/18 Q1013
Conditions at: LIMJ (GENOVA/SESTRI , IT) observed 2120 UTC 13 August 2022
Temperature: 25.0°C (77°F)
Dewpoint: 18.0°C (64°F) [RH = 65%]
Pressure (altimeter): 29.91 inches Hg (1013.0 mb)
Winds: variable direction winds at 3 MPH (3 knots; 1.5 m/s)
Visibility: 6 or more miles (10+ km)
Ceiling: ceiling and visibility are OK
Clouds: unknown
Weather: no significant weather observed at this time

Forecast for: LIMJ (GENOVA/SESTRI , IT)
Text: TAF LIMJ 131700Z 1318/1418 17010KT CAVOK
Forecast period: 1800 UTC 13 August 2022 to 1800 UTC 14 August 2022
Forecast type: FROM: standard forecast or significant change
Winds: from the S (170 degrees) at 12 MPH (10 knots; 5.1 m/s)
Visibility: 6 or more miles (10+ km)
Ceiling: unknown
Clouds: missing
Weather: NSW  (no significant weather)
Text: BECMG 1318/1320 01007KT
Forecast period: 1800 UTC 13 August 2022 to 0800 UTC 14 August 2022
Forecast type: BECOMING: Conditions expected to become as follows by 2000 UTC 13 August 2022
Winds: from the N (10 degrees) at 8 MPH (7 knots; 3.6 m/s)
Visibility: 6 or more miles (10+ km)
Ceiling: unknown
Clouds: missing
Weather: NSW  (no significant weather)
Text: BECMG 1408/1410 16012KT
Forecast period: 0800 to 1800 UTC 14 August 2022
Forecast type: BECOMING: Conditions expected to become as follows by 1000 UTC 14 August 2022
Winds: from the SSE (160 degrees) at 14 MPH (12 knots; 6.2 m/s)
Visibility: 6 or more miles (10+ km)
Ceiling: unknown
Clouds: missing
Weather: NSW  (no significant weather)

 MAPA DE AEROPUERTO

 INFORMACIÓN DE PISTA